Airfield :
LOGIN :

Register | Disclaimer

   EN    FR    IT 

 










Legend :    VFR   Marginal VFR   IFR   Intensive IFR   Very Intensive IFR
Visi :
Ceiling :
>= 8 km
>= 3000ft
5 to 8 km
1000 to 3000 ft
1500m to 5 km
500 to 1000 ft
800 to 1500m
200 to 500 ft
< 800m
< 200 ft
Symbols :   Thunderstorms  Fog  Heavy snow  Heavy precipitations  Wind > 20 kt
SIGMETs :     Misc.  Thunderstorms  Icing  Turbulence  Mountain Waves  Volcanic Ashes







- Airport Elevation : 140 ft
- IATA code : NYO


ESKN - Skavsta

CURRENT METAR :
  • 151950Z 30004KT CAVOK 11/10 Q1008

EXPIRED METARs :
  • 151920Z 31005KT CAVOK 12/10 Q1008
  • 151850Z 32006KT CAVOK 12/10 Q1008
  • 151820Z 32007KT 290V350 9999 FEW016 13/10 Q1008
  • 151750Z 35006KT 9999 SCT016 12/10 Q1008
  • 151720Z 34010KT 300V020 9999 SCT014 13/10 Q1008
  • 151650Z 34010KT 9999 BKN013 13/11 Q1008

TAF TAF ESKN
Valid from the 15 at 18:00 until the 16 at 18:00 UTC


151730Z 1518/1618 34008KT 9999 BKN030
BECMG 1606/1608 30015G25KT
TEMPO 1609/1617 SHRA BKN010 BKN020CB
BECMG 1616/1618 36006KT
No reported NOTAMs for that airfield.



MET'MAP, your aeronautical weather chart ! - Copyright ORBIFLY December 2007 - Disclaimer

ORBIFLY MET'MAP TEAM :

Programming & Development : Alexandra Zaïnal
Concept & Development : Baudouin d'Aumeries
Co-Development & Prog : Marc-Olivier Méhu
Technical & hardware support : Manuel Goepfert

Contact : metmap@orbifly.com




SOURCES & CREDITS :

   NOAA